createdAt,value
2024-01-21T00:02:50.362Z,5.87
2024-01-21T00:05:55.619Z,5.70
2024-01-21T00:08:57.998Z,5.60
2024-01-21T00:12:00.318Z,7.30
2024-01-21T00:15:02.968Z,6.57
2024-01-21T00:18:05.528Z,6.77
2024-01-21T00:21:07.806Z,6.63
2024-01-21T00:24:10.064Z,6.67
2024-01-21T00:27:12.388Z,7.47
2024-01-21T00:30:15.023Z,5.43
2024-01-21T00:33:17.736Z,6.27
2024-01-21T00:36:20.050Z,5.10
2024-01-21T00:39:22.481Z,5.17
2024-01-21T00:42:25.198Z,6.93
2024-01-21T00:45:27.931Z,6.00
2024-01-21T00:48:30.318Z,6.33
2024-01-21T00:51:32.536Z,5.53
2024-01-21T00:54:34.880Z,6.33
2024-01-21T00:57:37.076Z,5.70
2024-01-21T01:00:39.448Z,6.53
2024-01-21T01:03:41.877Z,7.13
2024-01-21T01:06:44.166Z,5.37
2024-01-21T01:09:46.455Z,14.57
2024-01-21T01:12:48.819Z,7.30
2024-01-21T01:15:51.914Z,7.13
2024-01-21T01:18:54.266Z,6.60
2024-01-21T01:21:56.602Z,6.90
2024-01-21T01:24:58.859Z,6.83
2024-01-21T01:28:01.391Z,5.70
2024-01-21T01:31:03.789Z,7.23
2024-01-21T01:34:06.085Z,6.10
2024-01-21T01:37:10.488Z,7.00
2024-01-21T01:40:12.849Z,7.07
2024-01-21T01:43:15.192Z,7.53
2024-01-21T01:46:17.729Z,7.17
2024-01-21T01:49:22.044Z,6.07
2024-01-21T01:52:24.294Z,7.57
2024-01-21T01:55:27.187Z,6.93
2024-01-21T01:58:30.031Z,8.33
2024-01-21T02:01:32.389Z,7.37
2024-01-21T02:04:35.406Z,6.97
2024-01-21T02:07:37.670Z,7.43
2024-01-21T02:10:39.856Z,7.03
2024-01-21T02:13:42.108Z,7.17
2024-01-21T02:16:44.343Z,7.63
2024-01-21T02:19:46.817Z,8.17
2024-01-21T02:22:49.403Z,7.70
2024-01-21T02:25:51.706Z,6.80
2024-01-21T02:28:54.123Z,7.33
2024-01-21T02:31:58.353Z,6.17
2024-01-21T02:35:00.704Z,7.88
2024-01-21T02:38:03.589Z,7.73
2024-01-21T02:41:05.909Z,6.67
2024-01-21T02:44:08.455Z,7.27
2024-01-21T02:47:10.885Z,6.57
2024-01-21T02:50:13.149Z,7.30
2024-01-21T02:53:15.242Z,7.40
2024-01-21T02:56:24.214Z,9.40
2024-01-21T02:59:26.340Z,7.20
2024-01-21T03:02:28.560Z,7.53
2024-01-21T03:05:30.890Z,8.80
2024-01-21T03:08:33.725Z,8.00
2024-01-21T03:11:39.802Z,7.23
2024-01-21T03:14:42.174Z,8.30
2024-01-21T03:17:44.384Z,7.20
2024-01-21T03:20:46.796Z,8.10
2024-01-21T03:23:49.300Z,8.10
2024-01-21T03:26:51.614Z,7.53
2024-01-21T03:29:53.845Z,8.03
2024-01-21T03:32:56.117Z,8.63
2024-01-21T03:35:58.342Z,8.00
2024-01-21T03:39:00.883Z,7.33
2024-01-21T03:42:03.106Z,7.33
2024-01-21T03:45:05.930Z,6.93
2024-01-21T03:48:08.644Z,8.27
2024-01-21T03:51:14.814Z,8.63
2024-01-21T03:54:18.608Z,8.50
2024-01-21T03:57:23.032Z,7.30
2024-01-21T04:00:25.470Z,8.05
2024-01-21T04:03:27.988Z,7.73
2024-01-21T04:06:30.433Z,7.63
2024-01-21T04:09:36.950Z,9.10
2024-01-21T04:12:39.265Z,7.37
2024-01-21T04:15:42.559Z,8.73
2024-01-21T04:18:45.116Z,6.83
2024-01-21T04:21:47.539Z,7.43
2024-01-21T04:24:50.027Z,7.87
2024-01-21T04:27:52.679Z,7.97
2024-01-21T04:30:55.043Z,6.07
2024-01-21T04:33:57.466Z,6.47
2024-01-21T04:36:59.794Z,6.80
2024-01-21T04:40:02.090Z,5.83
2024-01-21T04:43:04.363Z,5.60
2024-01-21T04:46:07.528Z,6.37
2024-01-21T04:49:10.049Z,6.93
2024-01-21T04:52:12.410Z,8.27
2024-01-21T04:55:14.879Z,7.43
2024-01-21T04:58:17.090Z,6.17
2024-01-21T05:01:21.104Z,5.70
2024-01-21T05:04:23.629Z,5.13
2024-01-21T05:07:26.559Z,6.83
2024-01-21T05:10:30.032Z,7.50
2024-01-21T05:13:37.142Z,5.73
2024-01-21T05:16:42.963Z,6.10
2024-01-21T05:19:45.306Z,5.97
2024-01-21T05:22:47.523Z,5.90
2024-01-21T05:25:53.401Z,5.87
2024-01-21T05:29:00.676Z,6.30
2024-01-21T05:32:03.567Z,7.43
2024-01-21T05:35:07.880Z,8.07
2024-01-21T05:38:10.100Z,6.70
2024-01-21T05:41:17.072Z,7.80
2024-01-21T05:44:19.578Z,7.33
2024-01-21T05:47:21.757Z,5.87
2024-01-21T05:50:23.916Z,5.67
2024-01-21T05:53:26.172Z,6.47
2024-01-21T05:56:28.310Z,7.77
2024-01-21T05:59:30.448Z,5.77
2024-01-21T06:02:33.526Z,6.17
2024-01-21T06:05:35.800Z,6.40
2024-01-21T06:08:38.043Z,7.20
2024-01-21T06:11:41.772Z,7.80
2024-01-21T06:14:45.713Z,6.83
2024-01-21T06:17:50.944Z,7.70
2024-01-21T06:20:53.134Z,8.07
2024-01-21T06:23:55.393Z,7.67
2024-01-21T06:26:57.738Z,8.63
2024-01-21T06:30:12.266Z,9.20
2024-01-21T06:33:14.658Z,10.10
2024-01-21T06:36:17.005Z,9.27
2024-01-21T06:39:19.265Z,10.50
2024-01-21T06:42:25.146Z,10.10
2024-01-21T06:45:28.179Z,11.77
2024-01-21T06:48:30.636Z,10.53
2024-01-21T06:51:33.706Z,9.67
2024-01-21T06:54:36.041Z,9.43
2024-01-21T06:57:41.187Z,11.50
2024-01-21T07:00:43.901Z,10.90
2024-01-21T07:03:46.973Z,11.40
2024-01-21T07:06:49.316Z,12.53
2024-01-21T07:09:51.627Z,13.77
2024-01-21T07:12:57.047Z,14.80
2024-01-21T07:15:59.210Z,12.33
2024-01-21T07:19:01.598Z,12.50
2024-01-21T07:22:04.575Z,12.33
2024-01-21T07:25:07.139Z,12.20
2024-01-21T07:28:09.478Z,9.83
2024-01-21T07:31:11.893Z,9.13
2024-01-21T07:34:14.896Z,9.33
2024-01-21T07:37:17.330Z,9.07
2024-01-21T07:40:19.546Z,9.37
2024-01-21T07:43:21.794Z,8.47
2024-01-21T07:46:24.063Z,7.87
2024-01-21T07:49:27.021Z,7.27
2024-01-21T07:52:29.217Z,8.13
2024-01-21T07:55:31.509Z,8.23
2024-01-21T07:58:33.730Z,7.60
2024-01-21T08:01:35.917Z,7.77
2024-01-21T08:04:38.511Z,7.93
2024-01-21T08:07:41.678Z,7.60
2024-01-21T08:10:43.974Z,7.73
2024-01-21T08:13:46.356Z,7.43
2024-01-21T08:16:48.523Z,9.60
2024-01-21T08:19:51.038Z,9.03
2024-01-21T08:22:53.558Z,7.97
2024-01-21T08:25:55.829Z,7.90
2024-01-21T08:28:59.399Z,6.97
2024-01-21T08:32:04.183Z,5.90
2024-01-21T08:35:08.283Z,5.97
2024-01-21T08:38:10.617Z,6.13
2024-01-21T08:41:12.979Z,6.80
2024-01-21T08:44:15.170Z,7.00
2024-01-21T08:47:17.367Z,5.87
2024-01-21T08:50:19.578Z,6.73
2024-01-21T08:53:22.285Z,6.10
2024-01-21T08:56:26.787Z,5.53
2024-01-21T09:02:31.006Z,4.75
2024-01-21T09:05:33.169Z,5.55
2024-01-21T09:08:35.511Z,5.47
2024-01-21T09:11:37.587Z,6.00
2024-01-21T09:14:40.039Z,6.15
2024-01-21T09:17:42.694Z,4.95
2024-01-21T09:20:45.030Z,5.78
2024-01-21T09:23:47.178Z,6.38
2024-01-21T09:26:49.464Z,6.43
2024-01-21T09:29:51.722Z,6.22
2024-01-21T09:32:54.073Z,5.25
2024-01-21T09:35:56.435Z,4.20
2024-01-21T09:38:58.685Z,4.70
2024-01-21T09:42:01.261Z,4.57
2024-01-21T09:45:04.598Z,5.43
2024-01-21T09:48:08.093Z,6.27
2024-01-21T09:51:10.856Z,5.68
2024-01-21T09:54:13.030Z,6.05
2024-01-21T09:57:15.551Z,5.07
2024-01-21T10:00:19.080Z,4.97
2024-01-21T10:03:21.559Z,4.30
2024-01-21T10:06:24.161Z,5.65
2024-01-21T10:09:26.720Z,5.40
2024-01-21T10:12:29.025Z,5.45
2024-01-21T10:15:31.874Z,5.07
2024-01-21T10:18:34.381Z,4.82
2024-01-21T10:21:37.251Z,4.95
2024-01-21T10:24:43.898Z,5.82
2024-01-21T10:27:47.505Z,5.57
2024-01-21T10:30:49.952Z,4.38
2024-01-21T10:33:52.281Z,4.30
2024-01-21T10:37:01.144Z,4.22
2024-01-21T10:40:03.975Z,4.70
2024-01-21T10:43:06.933Z,3.78
2024-01-21T10:46:09.862Z,5.68
2024-01-21T10:49:14.569Z,4.70
2024-01-21T10:52:18.354Z,4.13
2024-01-21T10:55:21.226Z,4.03
2024-01-21T10:58:24.293Z,4.10
2024-01-21T11:01:27.223Z,3.67
2024-01-21T11:04:29.612Z,5.27
2024-01-21T11:07:32.054Z,3.90
2024-01-21T11:10:38.461Z,4.13
2024-01-21T11:13:53.981Z,4.75
2024-01-21T11:16:59.369Z,4.88
2024-01-21T11:20:04.944Z,5.05
2024-01-21T11:23:16.267Z,4.70
2024-01-21T11:26:22.530Z,3.80
2024-01-21T11:29:32.559Z,4.10
2024-01-21T11:32:34.742Z,3.53
2024-01-21T11:35:39.849Z,4.32
2024-01-21T11:38:44.778Z,4.45
2024-01-21T11:41:47.356Z,3.55
2024-01-21T11:44:49.588Z,4.53
2024-01-21T11:47:52.553Z,4.00
2024-01-21T11:50:54.873Z,3.73
2024-01-21T11:53:57.077Z,3.53
2024-01-21T11:57:00.281Z,3.47
2024-01-21T12:00:02.640Z,2.90
2024-01-21T12:03:05.001Z,3.50
2024-01-21T12:06:08.099Z,3.83
2024-01-21T12:09:10.718Z,4.00
2024-01-21T12:12:14.799Z,6.88
2024-01-21T12:15:17.929Z,4.63
2024-01-21T12:18:20.493Z,3.05
2024-01-21T12:21:25.548Z,5.28
2024-01-21T12:24:28.286Z,3.80
2024-01-21T12:27:30.639Z,3.72
2024-01-21T12:30:33.811Z,3.75
2024-01-21T12:33:36.118Z,4.38
2024-01-21T12:36:43.603Z,3.40
2024-01-21T12:39:48.336Z,3.70
2024-01-21T12:42:50.833Z,3.83
2024-01-21T12:45:53.317Z,4.28
2024-01-21T12:48:55.627Z,3.85
2024-01-21T12:51:57.838Z,3.83
2024-01-21T12:55:00.366Z,4.60
2024-01-21T12:58:03.500Z,5.17
2024-01-21T13:01:06.364Z,4.83
2024-01-21T13:04:12.115Z,4.27
2024-01-21T13:07:17.387Z,5.00
2024-01-21T13:10:19.957Z,3.83
2024-01-21T13:13:22.697Z,4.60
2024-01-21T13:16:25.020Z,6.47
2024-01-21T13:19:27.455Z,4.40
2024-01-21T13:22:30.218Z,5.47
2024-01-21T13:25:33.809Z,5.27
2024-01-21T13:29:05.264Z,4.43
2024-01-21T13:32:08.114Z,5.67
2024-01-21T13:35:10.735Z,5.37
2024-01-21T13:38:18.115Z,4.40
2024-01-21T13:41:20.464Z,4.17
2024-01-21T13:44:22.847Z,4.10
2024-01-21T13:47:25.610Z,4.50
2024-01-21T13:50:28.220Z,4.70
2024-01-21T13:53:30.517Z,9.07
2024-01-21T13:56:32.722Z,4.47
2024-01-21T13:59:35.134Z,4.90
2024-01-21T14:02:37.501Z,3.77
2024-01-21T14:05:40.315Z,3.30
2024-01-21T14:08:42.865Z,3.90
2024-01-21T14:11:46.908Z,3.77
2024-01-21T14:14:49.486Z,3.88
2024-01-21T14:17:55.485Z,3.40
2024-01-21T14:20:57.862Z,3.47
2024-01-21T14:24:00.045Z,2.87
2024-01-21T14:27:02.622Z,4.00
2024-01-21T14:30:07.230Z,3.50
2024-01-21T14:33:09.562Z,3.72
2024-01-21T14:36:11.702Z,4.17
2024-01-21T14:39:14.035Z,4.97
2024-01-21T14:42:16.164Z,3.43
2024-01-21T14:45:18.676Z,3.57
2024-01-21T14:48:21.071Z,3.43
2024-01-21T14:51:23.378Z,3.40
2024-01-21T14:54:26.036Z,3.83
2024-01-21T14:57:28.802Z,2.63
2024-01-21T15:00:31.135Z,2.93
2024-01-21T15:03:33.367Z,2.60
2024-01-21T15:06:35.842Z,2.63
2024-01-21T15:09:38.605Z,2.30
2024-01-21T15:12:41.666Z,2.57
2024-01-21T15:15:44.000Z,2.30
2024-01-21T15:18:46.338Z,2.63
2024-01-21T15:21:49.028Z,3.93
2024-01-21T15:24:51.272Z,4.17
2024-01-21T15:27:53.717Z,3.13
2024-01-21T15:30:56.037Z,3.63
2024-01-21T15:33:58.368Z,3.17
2024-01-21T15:37:00.697Z,4.53
2024-01-21T15:40:03.763Z,2.73
2024-01-21T15:43:06.237Z,2.00
2024-01-21T15:46:09.158Z,2.20
2024-01-21T15:49:11.748Z,3.17
2024-01-21T15:52:14.107Z,3.43
2024-01-21T15:55:16.389Z,3.20
2024-01-21T15:58:18.941Z,3.27
2024-01-21T16:01:23.567Z,2.97
2024-01-21T16:07:27.952Z,2.50
2024-01-21T16:10:30.122Z,3.07
2024-01-21T16:13:36.838Z,2.80
2024-01-21T16:16:40.264Z,2.80
2024-01-21T16:19:42.521Z,2.73
2024-01-21T16:22:46.673Z,3.00
2024-01-21T16:25:49.941Z,3.07
2024-01-21T16:28:52.188Z,3.13
2024-01-21T16:31:55.442Z,2.83
2024-01-21T16:35:01.131Z,2.93
2024-01-21T16:38:04.940Z,3.23
2024-01-21T16:41:08.099Z,3.90
2024-01-21T16:44:10.659Z,4.77
2024-01-21T16:47:12.926Z,3.30
2024-01-21T16:50:15.596Z,3.37
2024-01-21T16:53:37.979Z,2.87
2024-01-21T16:56:42.687Z,3.13
2024-01-21T16:59:51.606Z,3.70
2024-01-21T17:02:57.522Z,3.83
2024-01-21T17:05:59.729Z,3.10
2024-01-21T17:09:02.672Z,3.30
2024-01-21T17:12:06.338Z,3.03
2024-01-21T17:15:08.950Z,2.93
2024-01-21T17:18:25.269Z,4.50
2024-01-21T17:21:27.581Z,3.63
2024-01-21T17:24:29.788Z,3.47
2024-01-21T17:27:33.823Z,3.80
2024-01-21T17:30:36.014Z,3.58
2024-01-21T17:33:38.419Z,3.83
2024-01-21T17:36:41.717Z,4.37
2024-01-21T17:39:43.913Z,2.50
2024-01-21T17:42:46.175Z,3.80
2024-01-21T17:45:48.380Z,3.27
2024-01-21T17:48:51.820Z,2.93
2024-01-21T17:51:54.142Z,3.47
2024-01-21T17:54:59.785Z,3.60
2024-01-21T17:58:02.111Z,3.10
2024-01-21T18:01:04.514Z,4.73
2024-01-21T18:04:10.999Z,3.50
2024-01-21T18:07:14.734Z,2.78
2024-01-21T18:10:17.012Z,3.90
2024-01-21T18:13:19.188Z,4.27
2024-01-21T18:16:23.527Z,4.53
2024-01-21T18:19:25.896Z,3.70
2024-01-21T18:22:30.740Z,13.03
2024-01-21T18:28:35.456Z,5.97
2024-01-21T18:31:37.613Z,5.70
2024-01-21T18:34:42.035Z,3.30
2024-01-21T18:37:46.912Z,6.78
2024-01-21T18:43:51.695Z,7.37
2024-01-21T18:46:54.018Z,6.73
2024-01-21T18:49:56.348Z,6.97
2024-01-21T18:52:58.660Z,8.73
2024-01-21T18:56:04.483Z,7.63
2024-01-21T18:59:07.875Z,6.63
2024-01-21T19:02:10.900Z,7.73
2024-01-21T19:05:14.358Z,8.03
2024-01-21T19:08:16.703Z,7.57
2024-01-21T19:11:21.614Z,8.93
2024-01-21T19:17:25.982Z,9.60
2024-01-21T19:20:33.451Z,11.63
2024-01-21T19:23:36.108Z,10.30
2024-01-21T19:26:38.620Z,9.80
2024-01-21T19:29:41.056Z,11.23
2024-01-21T19:32:43.460Z,12.43
2024-01-21T19:35:45.812Z,10.77
2024-01-21T19:38:48.737Z,10.40
2024-01-21T19:41:51.069Z,10.10
2024-01-21T19:44:53.241Z,11.67
2024-01-21T19:47:55.639Z,9.23
2024-01-21T19:50:58.041Z,11.17
2024-01-21T19:54:00.392Z,13.23
2024-01-21T19:57:06.350Z,9.57
2024-01-21T20:00:10.442Z,10.30
2024-01-21T20:03:12.763Z,10.13
2024-01-21T20:06:15.183Z,10.33
2024-01-21T20:09:17.577Z,11.03
2024-01-21T20:12:19.839Z,11.53
2024-01-21T20:15:22.035Z,10.73
2024-01-21T20:18:24.788Z,10.17
2024-01-21T20:21:27.084Z,11.27
2024-01-21T20:24:29.268Z,11.90
2024-01-21T20:27:32.562Z,11.13
2024-01-21T20:30:35.325Z,11.57
2024-01-21T20:33:37.994Z,14.33
2024-01-21T20:36:40.285Z,13.87
2024-01-21T20:39:42.548Z,12.60
2024-01-21T20:42:44.893Z,12.63
2024-01-21T20:45:47.044Z,13.97
2024-01-21T20:48:49.754Z,11.73
2024-01-21T20:51:52.034Z,12.53
2024-01-21T20:54:54.513Z,12.57
2024-01-21T20:57:57.526Z,11.73
2024-01-21T21:01:06.223Z,14.63
2024-01-21T21:04:17.897Z,12.77
2024-01-21T21:07:20.162Z,13.85
2024-01-21T21:10:27.123Z,12.90
2024-01-21T21:13:29.364Z,13.10
2024-01-21T21:16:31.545Z,13.60
2024-01-21T21:19:33.904Z,14.50
2024-01-21T21:22:37.600Z,12.90
2024-01-21T21:25:40.935Z,12.38
2024-01-21T21:28:43.211Z,12.40
2024-01-21T21:31:45.883Z,14.03
2024-01-21T21:34:49.042Z,14.33
2024-01-21T21:37:54.728Z,14.23
2024-01-21T21:40:56.939Z,12.40
2024-01-21T21:43:59.363Z,13.47
2024-01-21T21:47:01.772Z,14.00
2024-01-21T21:50:04.506Z,12.50
2024-01-21T21:53:07.353Z,12.70
2024-01-21T21:56:11.396Z,15.18
2024-01-21T21:59:13.986Z,14.87
2024-01-21T22:02:17.499Z,14.33
2024-01-21T22:05:20.587Z,15.85
2024-01-21T22:08:22.877Z,15.80
2024-01-21T22:11:25.445Z,15.77
2024-01-21T22:14:27.744Z,16.40
2024-01-21T22:17:30.325Z,16.53
2024-01-21T22:20:32.690Z,14.80
2024-01-21T22:23:34.943Z,14.87
2024-01-21T22:26:37.501Z,13.87
2024-01-21T22:29:39.959Z,14.63
2024-01-21T22:32:42.277Z,15.80
2024-01-21T22:35:44.554Z,16.43
2024-01-21T22:38:47.994Z,15.13
2024-01-21T22:41:50.321Z,16.67
2024-01-21T22:44:52.677Z,17.20
2024-01-21T22:47:54.983Z,15.87
2024-01-21T22:50:57.480Z,15.67
2024-01-21T22:53:59.769Z,15.40
2024-01-21T22:57:02.018Z,14.53
2024-01-21T23:00:06.500Z,16.37
2024-01-21T23:03:09.238Z,17.38
2024-01-21T23:06:12.041Z,13.27
2024-01-21T23:09:14.433Z,14.30
2024-01-21T23:12:16.653Z,15.03
2024-01-21T23:15:18.970Z,14.63
2024-01-21T23:18:22.076Z,13.67
2024-01-21T23:21:24.687Z,14.67
2024-01-21T23:24:26.844Z,14.50
2024-01-21T23:27:29.250Z,15.47
2024-01-21T23:30:31.414Z,15.60
2024-01-21T23:33:33.945Z,17.03
2024-01-21T23:36:36.243Z,16.23
2024-01-21T23:39:38.591Z,24.13
2024-01-21T23:42:40.769Z,15.23
2024-01-21T23:45:42.975Z,12.77
2024-01-21T23:48:45.264Z,17.73
2024-01-21T23:51:48.911Z,14.87
2024-01-21T23:54:51.048Z,13.87
2024-01-21T23:57:58.061Z,15.13
